sensor_id;sensor_type;location;lat;lon;timestamp;pressure;altitude;pressure_sealevel;temperature;humidity
15308;BME280;7755;52.208;6.964;2022-12-18T00:02:18;102534.94;;;-4.67;100.00
15308;BME280;7755;52.208;6.964;2022-12-18T00:06:22;102524.72;;;-4.73;100.00
15308;BME280;7755;52.208;6.964;2022-12-18T00:10:27;102533.22;;;-4.82;100.00
15308;BME280;7755;52.208;6.964;2022-12-18T00:14:32;102528.31;;;-4.88;100.00
15308;BME280;7755;52.208;6.964;2022-12-18T00:18:35;102532.28;;;-4.96;100.00
15308;BME280;7755;52.208;6.964;2022-12-18T00:22:38;102533.53;;;-5.01;100.00
15308;BME280;7755;52.208;6.964;2022-12-18T00:26:42;102535.78;;;-5.09;100.00
15308;BME280;7755;52.208;6.964;2022-12-18T00:30:46;102532.84;;;-5.19;100.00
15308;BME280;7755;52.208;6.964;2022-12-18T00:34:52;102539.94;;;-5.34;100.00
15308;BME280;7755;52.208;6.964;2022-12-18T00:38:56;102534.31;;;-5.43;100.00
15308;BME280;7755;52.208;6.964;2022-12-18T00:42:59;102543.22;;;-5.44;100.00
15308;BME280;7755;52.208;6.964;2022-12-18T00:47:03;102537.94;;;-5.44;100.00
15308;BME280;7755;52.208;6.964;2022-12-18T00:51:07;102526.22;;;-5.40;100.00
15308;BME280;7755;52.208;6.964;2022-12-18T00:55:11;102524.31;;;-5.38;100.00
15308;BME280;7755;52.208;6.964;2022-12-18T00:59:13;102533.97;;;-5.37;100.00
15308;BME280;7755;52.208;6.964;2022-12-18T01:03:17;102529.81;;;-5.41;100.00
15308;BME280;7755;52.208;6.964;2022-12-18T01:07:20;102529.03;;;-5.43;100.00
15308;BME280;7755;52.208;6.964;2022-12-18T01:11:24;102531.28;;;-5.52;100.00
15308;BME280;7755;52.208;6.964;2022-12-18T01:15:26;102531.53;;;-5.56;100.00
15308;BME280;7755;52.208;6.964;2022-12-18T01:19:31;102523.31;;;-5.66;100.00
15308;BME280;7755;52.208;6.964;2022-12-18T01:23:33;102518.63;;;-5.77;100.00
15308;BME280;7755;52.208;6.964;2022-12-18T01:27:37;102520.84;;;-5.99;100.00
15308;BME280;7755;52.208;6.964;2022-12-18T01:31:40;102526.59;;;-6.07;100.00
15308;BME280;7755;52.208;6.964;2022-12-18T01:35:44;102537.03;;;-6.19;98.72
15308;BME280;7755;52.208;6.964;2022-12-18T01:39:48;102538.50;;;-6.29;98.68
15308;BME280;7755;52.208;6.964;2022-12-18T01:43:54;102543.00;;;-6.32;99.02
15308;BME280;7755;52.208;6.964;2022-12-18T01:47:59;102539.41;;;-6.30;99.37
15308;BME280;7755;52.208;6.964;2022-12-18T01:52:04;102527.81;;;-6.28;99.52
15308;BME280;7755;52.208;6.964;2022-12-18T01:56:10;102539.06;;;-6.24;99.80
15308;BME280;7755;52.208;6.964;2022-12-18T02:00:18;102519.03;;;-6.28;99.88
15308;BME280;7755;52.208;6.964;2022-12-18T02:04:22;102519.88;;;-6.28;100.00
15308;BME280;7755;52.208;6.964;2022-12-18T02:08:32;102522.03;;;-6.35;99.53
15308;BME280;7755;52.208;6.964;2022-12-18T02:12:42;102534.75;;;-6.41;99.11
15308;BME280;7755;52.208;6.964;2022-12-18T02:16:52;102533.19;;;-6.45;98.91
15308;BME280;7755;52.208;6.964;2022-12-18T02:21:00;102537.63;;;-6.46;98.71
15308;BME280;7755;52.208;6.964;2022-12-18T02:25:21;102539.34;;;-6.45;98.59
15308;BME280;7755;52.208;6.964;2022-12-18T02:29:32;102541.97;;;-6.45;98.75
15308;BME280;7755;52.208;6.964;2022-12-18T02:33:39;102529.59;;;-6.44;98.64
15308;BME280;7755;52.208;6.964;2022-12-18T02:37:45;102525.97;;;-6.42;99.02
15308;BME280;7755;52.208;6.964;2022-12-18T02:41:50;102533.91;;;-6.42;99.39
15308;BME280;7755;52.208;6.964;2022-12-18T02:45:57;102525.88;;;-6.40;99.07
15308;BME280;7755;52.208;6.964;2022-12-18T02:50:08;102516.03;;;-6.38;98.89
15308;BME280;7755;52.208;6.964;2022-12-18T02:54:21;102524.81;;;-6.38;99.08
15308;BME280;7755;52.208;6.964;2022-12-18T02:58:31;102522.47;;;-6.42;98.37
15308;BME280;7755;52.208;6.964;2022-12-18T03:02:48;102519.13;;;-6.46;98.73
15308;BME280;7755;52.208;6.964;2022-12-18T03:06:55;102515.81;;;-6.49;98.33
15308;BME280;7755;52.208;6.964;2022-12-18T03:11:04;102524.75;;;-6.52;98.00
15308;BME280;7755;52.208;6.964;2022-12-18T03:15:10;102519.88;;;-6.60;97.63
15308;BME280;7755;52.208;6.964;2022-12-18T03:19:22;102523.19;;;-6.72;97.06
15308;BME280;7755;52.208;6.964;2022-12-18T03:23:36;102528.22;;;-6.83;96.80
15308;BME280;7755;52.208;6.964;2022-12-18T03:27:47;102530.94;;;-6.84;97.13
15308;BME280;7755;52.208;6.964;2022-12-18T03:32:02;102530.88;;;-6.83;97.04
15308;BME280;7755;52.208;6.964;2022-12-18T03:36:08;102518.50;;;-6.82;97.10
15308;BME280;7755;52.208;6.964;2022-12-18T03:40:12;102506.13;;;-6.82;97.13
15308;BME280;7755;52.208;6.964;2022-12-18T03:44:20;102508.69;;;-6.80;96.81
15308;BME280;7755;52.208;6.964;2022-12-18T03:48:30;102509.88;;;-6.86;96.63
15308;BME280;7755;52.208;6.964;2022-12-18T03:52:47;102515.34;;;-6.89;96.47
15308;BME280;7755;52.208;6.964;2022-12-18T03:56:58;102508.34;;;-6.90;96.87
15308;BME280;7755;52.208;6.964;2022-12-18T04:01:08;102505.72;;;-6.90;97.27
15308;BME280;7755;52.208;6.964;2022-12-18T04:05:11;102511.91;;;-6.91;97.46
15308;BME280;7755;52.208;6.964;2022-12-18T04:09:19;102514.31;;;-6.87;98.15
15308;BME280;7755;52.208;6.964;2022-12-18T04:13:24;102498.22;;;-6.82;97.14
15308;BME280;7755;52.208;6.964;2022-12-18T04:17:27;102499.91;;;-6.81;96.70
15308;BME280;7755;52.208;6.964;2022-12-18T04:21:31;102499.22;;;-6.84;96.42
15308;BME280;7755;52.208;6.964;2022-12-18T04:25:36;102487.97;;;-6.88;96.08
15308;BME280;7755;52.208;6.964;2022-12-18T04:29:42;102488.22;;;-6.93;96.08
15308;BME280;7755;52.208;6.964;2022-12-18T04:33:45;102492.72;;;-6.95;95.63
15308;BME280;7755;52.208;6.964;2022-12-18T04:37:48;102494.66;;;-6.98;96.52
15308;BME280;7755;52.208;6.964;2022-12-18T04:41:53;102497.06;;;-7.09;95.90
15308;BME280;7755;52.208;6.964;2022-12-18T04:46:01;102487.91;;;-7.20;95.21
15308;BME280;7755;52.208;6.964;2022-12-18T04:50:05;102485.66;;;-7.27;94.76
15308;BME280;7755;52.208;6.964;2022-12-18T04:54:08;102491.03;;;-7.29;94.69
15308;BME280;7755;52.208;6.964;2022-12-18T04:58:12;102478.84;;;-7.31;94.70
15308;BME280;7755;52.208;6.964;2022-12-18T05:02:15;102483.19;;;-7.30;94.95
15308;BME280;7755;52.208;6.964;2022-12-18T05:06:18;102476.13;;;-7.30;96.06
15308;BME280;7755;52.208;6.964;2022-12-18T05:10:21;102464.44;;;-7.26;96.57
15308;BME280;7755;52.208;6.964;2022-12-18T05:14:25;102468.97;;;-7.28;96.69
15308;BME280;7755;52.208;6.964;2022-12-18T05:18:29;102470.63;;;-7.43;95.98
15308;BME280;7755;52.208;6.964;2022-12-18T05:22:31;102475.88;;;-7.58;95.29
15308;BME280;7755;52.208;6.964;2022-12-18T05:26:34;102480.75;;;-7.68;95.30
15308;BME280;7755;52.208;6.964;2022-12-18T05:30:38;102494.13;;;-7.71;94.41
15308;BME280;7755;52.208;6.964;2022-12-18T05:34:48;102489.06;;;-7.76;94.45
15308;BME280;7755;52.208;6.964;2022-12-18T05:38:51;102501.25;;;-7.73;94.41
15308;BME280;7755;52.208;6.964;2022-12-18T05:42:54;102494.03;;;-7.70;94.56
15308;BME280;7755;52.208;6.964;2022-12-18T05:46:58;102498.16;;;-7.64;94.95
15308;BME280;7755;52.208;6.964;2022-12-18T05:51:05;102509.50;;;-7.62;94.74
15308;BME280;7755;52.208;6.964;2022-12-18T05:55:08;102505.06;;;-7.61;94.76
15308;BME280;7755;52.208;6.964;2022-12-18T05:59:11;102507.63;;;-7.60;94.85
15308;BME280;7755;52.208;6.964;2022-12-18T06:03:15;102514.38;;;-7.54;95.27
15308;BME280;7755;52.208;6.964;2022-12-18T06:07:18;102516.88;;;-7.51;95.18
15308;BME280;7755;52.208;6.964;2022-12-18T06:11:23;102516.94;;;-7.53;95.23
15308;BME280;7755;52.208;6.964;2022-12-18T06:15:26;102525.72;;;-7.52;95.37
15308;BME280;7755;52.208;6.964;2022-12-18T06:19:32;102532.00;;;-7.55;94.74
15308;BME280;7755;52.208;6.964;2022-12-18T06:23:37;102530.69;;;-7.63;94.86
15308;BME280;7755;52.208;6.964;2022-12-18T06:27:40;102536.91;;;-7.64;94.93
15308;BME280;7755;52.208;6.964;2022-12-18T06:31:44;102539.47;;;-7.63;94.93
15308;BME280;7755;52.208;6.964;2022-12-18T06:35:48;102538.53;;;-7.62;94.84
15308;BME280;7755;52.208;6.964;2022-12-18T06:39:51;102534.97;;;-7.61;94.92
15308;BME280;7755;52.208;6.964;2022-12-18T06:43:54;102528.75;;;-7.60;95.11
15308;BME280;7755;52.208;6.964;2022-12-18T06:48:00;102526.06;;;-7.58;95.28
15308;BME280;7755;52.208;6.964;2022-12-18T06:52:04;102524.19;;;-7.56;95.16
15308;BME280;7755;52.208;6.964;2022-12-18T06:56:07;102518.91;;;-7.56;95.16
15308;BME280;7755;52.208;6.964;2022-12-18T07:00:12;102508.34;;;-7.56;95.45
15308;BME280;7755;52.208;6.964;2022-12-18T07:04:15;102509.94;;;-7.54;95.80
15308;BME280;7755;52.208;6.964;2022-12-18T07:08:19;102501.09;;;-7.53;95.77
15308;BME280;7755;52.208;6.964;2022-12-18T07:12:22;102491.38;;;-7.52;96.25
15308;BME280;7755;52.208;6.964;2022-12-18T07:16:25;102478.25;;;-7.54;96.39
15308;BME280;7755;52.208;6.964;2022-12-18T07:20:29;102474.63;;;-7.51;96.33
15308;BME280;7755;52.208;6.964;2022-12-18T07:24:34;102472.75;;;-7.49;96.33
15308;BME280;7755;52.208;6.964;2022-12-18T07:28:38;102462.19;;;-7.49;96.20
15308;BME280;7755;52.208;6.964;2022-12-18T07:32:41;102466.53;;;-7.48;96.38
15308;BME280;7755;52.208;6.964;2022-12-18T07:36:44;102474.44;;;-7.48;96.81
15308;BME280;7755;52.208;6.964;2022-12-18T07:40:48;102480.50;;;-7.46;96.85
15308;BME280;7755;52.208;6.964;2022-12-18T07:44:51;102480.34;;;-7.43;96.87
15308;BME280;7755;52.208;6.964;2022-12-18T07:48:54;102481.28;;;-7.44;97.56
15308;BME280;7755;52.208;6.964;2022-12-18T07:52:56;102473.38;;;-7.44;98.43
15308;BME280;7755;52.208;6.964;2022-12-18T07:57:01;102492.53;;;-7.40;98.61
15308;BME280;7755;52.208;6.964;2022-12-18T08:01:05;102492.97;;;-7.32;99.70
15308;BME280;7755;52.208;6.964;2022-12-18T08:05:08;102476.72;;;-7.25;99.75
15308;BME280;7755;52.208;6.964;2022-12-18T08:09:11;102471.91;;;-7.17;100.00
15308;BME280;7755;52.208;6.964;2022-12-18T08:13:15;102474.03;;;-7.07;100.00
15308;BME280;7755;52.208;6.964;2022-12-18T08:17:19;102480.78;;;-7.02;100.00
15308;BME280;7755;52.208;6.964;2022-12-18T08:21:24;102467.16;;;-6.94;100.00
15308;BME280;7755;52.208;6.964;2022-12-18T08:25:27;102464.06;;;-6.87;100.00
15308;BME280;7755;52.208;6.964;2022-12-18T08:29:33;102466.19;;;-6.77;100.00
15308;BME280;7755;52.208;6.964;2022-12-18T08:33:36;102456.84;;;-6.67;100.00
15308;BME280;7755;52.208;6.964;2022-12-18T08:37:42;102447.53;;;-6.58;100.00
15308;BME280;7755;52.208;6.964;2022-12-18T08:41:45;102445.22;;;-6.49;100.00
15308;BME280;7755;52.208;6.964;2022-12-18T08:46:15;102450.94;;;-6.41;100.00
15308;BME280;7755;52.208;6.964;2022-12-18T08:50:18;102445.78;;;-6.28;100.00
15308;BME280;7755;52.208;6.964;2022-12-18T08:54:21;102434.66;;;-6.19;100.00
15308;BME280;7755;52.208;6.964;2022-12-18T08:58:24;102433.25;;;-6.10;100.00
15308;BME280;7755;52.208;6.964;2022-12-18T09:02:28;102431.78;;;-6.00;100.00
15308;BME280;7755;52.208;6.964;2022-12-18T09:06:31;102425.19;;;-5.93;100.00
15308;BME280;7755;52.208;6.964;2022-12-18T09:10:34;102433.47;;;-5.85;100.00
15308;BME280;7755;52.208;6.964;2022-12-18T09:14:43;102432.84;;;-5.74;100.00
15308;BME280;7755;52.208;6.964;2022-12-18T09:18:48;102433.03;;;-5.63;100.00
15308;BME280;7755;52.208;6.964;2022-12-18T09:22:51;102443.09;;;-5.54;100.00
15308;BME280;7755;52.208;6.964;2022-12-18T09:26:54;102438.91;;;-5.43;100.00
15308;BME280;7755;52.208;6.964;2022-12-18T09:30:58;102434.94;;;-5.36;100.00
15308;BME280;7755;52.208;6.964;2022-12-18T09:35:03;102447.66;;;-5.27;100.00
15308;BME280;7755;52.208;6.964;2022-12-18T09:39:06;102442.44;;;-5.14;100.00
15308;BME280;7755;52.208;6.964;2022-12-18T09:43:15;102443.28;;;-5.00;100.00
15308;BME280;7755;52.208;6.964;2022-12-18T09:47:23;102415.19;;;-4.89;100.00
15308;BME280;7755;52.208;6.964;2022-12-18T09:51:30;102407.31;;;-4.77;100.00
15308;BME280;7755;52.208;6.964;2022-12-18T09:55:37;102406.41;;;-4.63;100.00
15308;BME280;7755;52.208;6.964;2022-12-18T09:59:47;102405.63;;;-4.51;100.00
15308;BME280;7755;52.208;6.964;2022-12-18T10:03:52;102413.41;;;-4.35;100.00
15308;BME280;7755;52.208;6.964;2022-12-18T10:08:02;102413.56;;;-4.24;100.00
15308;BME280;7755;52.208;6.964;2022-12-18T10:12:13;102410.09;;;-4.12;100.00
15308;BME280;7755;52.208;6.964;2022-12-18T10:16:23;102412.56;;;-3.96;100.00
15308;BME280;7755;52.208;6.964;2022-12-18T10:20:34;102396.63;;;-3.83;100.00
15308;BME280;7755;52.208;6.964;2022-12-18T10:24:45;102388.56;;;-3.69;100.00
15308;BME280;7755;52.208;6.964;2022-12-18T10:28:53;102368.88;;;-3.53;100.00
15308;BME280;7755;52.208;6.964;2022-12-18T10:33:05;102352.28;;;-3.44;100.00
15308;BME280;7755;52.208;6.964;2022-12-18T10:37:15;102336.63;;;-3.36;100.00
15308;BME280;7755;52.208;6.964;2022-12-18T10:41:26;102327.38;;;-3.31;100.00
15308;BME280;7755;52.208;6.964;2022-12-18T10:45:30;102315.31;;;-3.23;100.00
15308;BME280;7755;52.208;6.964;2022-12-18T10:49:33;102315.63;;;-3.15;100.00
15308;BME280;7755;52.208;6.964;2022-12-18T10:53:37;102312.28;;;-3.06;100.00
15308;BME280;7755;52.208;6.964;2022-12-18T10:57:43;102303.72;;;-2.98;100.00
15308;BME280;7755;52.208;6.964;2022-12-18T11:01:51;102301.47;;;-2.92;100.00
15308;BME280;7755;52.208;6.964;2022-12-18T11:06:03;102311.97;;;-2.78;100.00
15308;BME280;7755;52.208;6.964;2022-12-18T11:10:15;102294.44;;;-2.69;100.00
15308;BME280;7755;52.208;6.964;2022-12-18T11:14:24;102279.38;;;-2.57;100.00
15308;BME280;7755;52.208;6.964;2022-12-18T11:18:29;102273.34;;;-2.48;100.00
15308;BME280;7755;52.208;6.964;2022-12-18T11:22:33;102288.97;;;-2.43;100.00
15308;BME280;7755;52.208;6.964;2022-12-18T11:26:37;102289.34;;;-2.37;100.00
15308;BME280;7755;52.208;6.964;2022-12-18T11:30:42;102284.16;;;-2.27;100.00
15308;BME280;7755;52.208;6.964;2022-12-18T11:34:48;102280.03;;;-2.20;100.00
15308;BME280;7755;52.208;6.964;2022-12-18T11:39:03;102270.22;;;-2.20;100.00
15308;BME280;7755;52.208;6.964;2022-12-18T11:43:13;102261.53;;;-2.10;100.00
15308;BME280;7755;52.208;6.964;2022-12-18T11:47:26;102243.13;;;-2.02;100.00
15308;BME280;7755;52.208;6.964;2022-12-18T11:51:37;102240.59;;;-1.93;100.00
15308;BME280;7755;52.208;6.964;2022-12-18T11:55:51;102249.56;;;-1.82;100.00
15308;BME280;7755;52.208;6.964;2022-12-18T12:00:03;102240.09;;;-1.75;100.00
15308;BME280;7755;52.208;6.964;2022-12-18T12:04:28;102246.50;;;-1.67;100.00
15308;BME280;7755;52.208;6.964;2022-12-18T12:08:50;102226.66;;;-1.62;100.00
15308;BME280;7755;52.208;6.964;2022-12-18T12:13:06;102220.34;;;-1.61;100.00
15308;BME280;7755;52.208;6.964;2022-12-18T12:17:17;102214.88;;;-1.60;100.00
15308;BME280;7755;52.208;6.964;2022-12-18T12:21:28;102215.97;;;-1.62;100.00
15308;BME280;7755;52.208;6.964;2022-12-18T12:25:37;102202.13;;;-1.56;100.00
15308;BME280;7755;52.208;6.964;2022-12-18T12:29:49;102192.06;;;-1.53;100.00
15308;BME280;7755;52.208;6.964;2022-12-18T12:34:00;102182.09;;;-1.51;100.00
15308;BME280;7755;52.208;6.964;2022-12-18T12:38:12;102163.31;;;-1.49;100.00
15308;BME280;7755;52.208;6.964;2022-12-18T12:42:22;102170.72;;;-1.42;100.00
15308;BME280;7755;52.208;6.964;2022-12-18T12:46:49;102161.97;;;-1.44;100.00
15308;BME280;7755;52.208;6.964;2022-12-18T12:50:55;102159.78;;;-1.39;100.00
15308;BME280;7755;52.208;6.964;2022-12-18T12:55:02;102156.13;;;-1.38;100.00
15308;BME280;7755;52.208;6.964;2022-12-18T12:59:19;102147.75;;;-1.33;100.00
15308;BME280;7755;52.208;6.964;2022-12-18T13:03:35;102146.97;;;-1.24;100.00
15308;BME280;7755;52.208;6.964;2022-12-18T13:07:41;102140.16;;;-1.17;100.00
15308;BME280;7755;52.208;6.964;2022-12-18T13:11:50;102143.56;;;-1.15;100.00
15308;BME280;7755;52.208;6.964;2022-12-18T13:16:10;102143.66;;;-1.16;100.00
15308;BME280;7755;52.208;6.964;2022-12-18T13:20:14;102137.47;;;-1.17;100.00
15308;BME280;7755;52.208;6.964;2022-12-18T13:24:23;102135.91;;;-1.19;100.00
15308;BME280;7755;52.208;6.964;2022-12-18T13:28:50;102129.53;;;-1.28;100.00
15308;BME280;7755;52.208;6.964;2022-12-18T13:37:59;102124.22;;;-1.28;100.00
15308;BME280;7755;52.208;6.964;2022-12-18T13:42:39;102116.66;;;-1.23;100.00
15308;BME280;7755;52.208;6.964;2022-12-18T13:47:27;102129.97;;;-1.23;100.00
15308;BME280;7755;52.208;6.964;2022-12-18T13:51:35;102104.03;;;-1.21;100.00
15308;BME280;7755;52.208;6.964;2022-12-18T13:55:46;102099.41;;;-1.19;100.00
15308;BME280;7755;52.208;6.964;2022-12-18T13:59:49;102081.72;;;-1.20;100.00
15308;BME280;7755;52.208;6.964;2022-12-18T14:04:08;102078.91;;;-1.18;100.00
15308;BME280;7755;52.208;6.964;2022-12-18T14:08:14;102078.91;;;-1.18;100.00
15308;BME280;7755;52.208;6.964;2022-12-18T14:12:22;102076.38;;;-1.20;100.00
15308;BME280;7755;52.208;6.964;2022-12-18T14:16:43;102065.44;;;-1.17;100.00
15308;BME280;7755;52.208;6.964;2022-12-18T14:20:49;102052.56;;;-1.12;100.00
15308;BME280;7755;52.208;6.964;2022-12-18T14:25:13;102037.38;;;-1.11;100.00
15308;BME280;7755;52.208;6.964;2022-12-18T14:29:24;102035.22;;;-1.17;100.00
15308;BME280;7755;52.208;6.964;2022-12-18T14:33:29;102030.88;;;-1.18;100.00
15308;BME280;7755;52.208;6.964;2022-12-18T14:37:32;102042.72;;;-1.11;100.00
15308;BME280;7755;52.208;6.964;2022-12-18T14:41:34;102039.81;;;-1.08;100.00
15308;BME280;7755;52.208;6.964;2022-12-18T14:45:42;102033.22;;;-1.04;100.00
15308;BME280;7755;52.208;6.964;2022-12-18T14:49:45;102028.84;;;-1.05;100.00
15308;BME280;7755;52.208;6.964;2022-12-18T14:53:52;102025.47;;;-1.07;100.00
15308;BME280;7755;52.208;6.964;2022-12-18T14:57:57;102018.19;;;-1.05;100.00
15308;BME280;7755;52.208;6.964;2022-12-18T15:02:04;102012.00;;;-1.05;100.00
15308;BME280;7755;52.208;6.964;2022-12-18T15:06:17;102014.13;;;-0.99;100.00
15308;BME280;7755;52.208;6.964;2022-12-18T15:10:22;102010.34;;;-0.97;100.00
15308;BME280;7755;52.208;6.964;2022-12-18T15:14:38;102000.41;;;-0.95;100.00
15308;BME280;7755;52.208;6.964;2022-12-18T15:18:44;101996.47;;;-0.91;100.00
15308;BME280;7755;52.208;6.964;2022-12-18T15:22:49;101991.13;;;-0.91;100.00
15308;BME280;7755;52.208;6.964;2022-12-18T15:26:52;102001.41;;;-0.86;100.00
15308;BME280;7755;52.208;6.964;2022-12-18T15:30:59;101989.75;;;-0.85;100.00
15308;BME280;7755;52.208;6.964;2022-12-18T15:35:13;101979.63;;;-0.82;100.00
15308;BME280;7755;52.208;6.964;2022-12-18T15:39:16;101965.03;;;-0.87;100.00
15308;BME280;7755;52.208;6.964;2022-12-18T15:43:20;101955.97;;;-0.96;100.00
15308;BME280;7755;52.208;6.964;2022-12-18T15:47:39;101962.34;;;-0.87;100.00
15308;BME280;7755;52.208;6.964;2022-12-18T15:51:45;101949.56;;;-0.84;100.00
15308;BME280;7755;52.208;6.964;2022-12-18T15:55:51;101954.75;;;-0.82;100.00
15308;BME280;7755;52.208;6.964;2022-12-18T16:00:13;101948.28;;;-0.89;100.00
15308;BME280;7755;52.208;6.964;2022-12-18T16:04:17;101954.19;;;-0.86;100.00
15308;BME280;7755;52.208;6.964;2022-12-18T16:08:23;101968.00;;;-0.80;100.00
15308;BME280;7755;52.208;6.964;2022-12-18T16:12:26;101965.03;;;-0.77;100.00
15308;BME280;7755;52.208;6.964;2022-12-18T16:16:28;101967.56;;;-0.76;100.00
15308;BME280;7755;52.208;6.964;2022-12-18T16:20:31;101945.66;;;-0.79;100.00
15308;BME280;7755;52.208;6.964;2022-12-18T16:24:36;101925.59;;;-0.74;100.00
15308;BME280;7755;52.208;6.964;2022-12-18T16:28:40;101937.50;;;-0.78;100.00
15308;BME280;7755;52.208;6.964;2022-12-18T16:32:49;101925.28;;;-0.80;100.00
15308;BME280;7755;52.208;6.964;2022-12-18T16:36:52;101914.47;;;-0.79;100.00
15308;BME280;7755;52.208;6.964;2022-12-18T16:41:15;101911.50;;;-0.76;100.00
15308;BME280;7755;52.208;6.964;2022-12-18T16:45:34;101919.66;;;-0.77;100.00
15308;BME280;7755;52.208;6.964;2022-12-18T16:49:37;101906.44;;;-0.79;100.00
15308;BME280;7755;52.208;6.964;2022-12-18T16:53:40;101903.91;;;-0.80;100.00
15308;BME280;7755;52.208;6.964;2022-12-18T16:57:45;101896.31;;;-0.75;100.00
15308;BME280;7755;52.208;6.964;2022-12-18T17:01:48;101897.16;;;-0.75;100.00
15308;BME280;7755;52.208;6.964;2022-12-18T17:05:51;101897.59;;;-0.70;100.00
15308;BME280;7755;52.208;6.964;2022-12-18T17:09:54;101895.94;;;-0.61;100.00
15308;BME280;7755;52.208;6.964;2022-12-18T17:13:59;101879.06;;;-0.62;100.00
15308;BME280;7755;52.208;6.964;2022-12-18T17:18:02;101880.47;;;-0.67;100.00
15308;BME280;7755;52.208;6.964;2022-12-18T17:22:05;101879.34;;;-0.65;100.00
15308;BME280;7755;52.208;6.964;2022-12-18T17:26:09;101877.53;;;-0.64;100.00
15308;BME280;7755;52.208;6.964;2022-12-18T17:30:14;101875.97;;;-0.57;100.00
15308;BME280;7755;52.208;6.964;2022-12-18T17:34:17;101873.31;;;-0.57;100.00
15308;BME280;7755;52.208;6.964;2022-12-18T17:38:22;101878.78;;;-0.59;100.00
15308;BME280;7755;52.208;6.964;2022-12-18T17:42:25;101869.81;;;-0.58;100.00
15308;BME280;7755;52.208;6.964;2022-12-18T17:46:30;101873.59;;;-0.60;100.00
15308;BME280;7755;52.208;6.964;2022-12-18T17:51:00;101863.59;;;-0.68;100.00
15308;BME280;7755;52.208;6.964;2022-12-18T17:55:04;101871.03;;;-0.62;100.00
15308;BME280;7755;52.208;6.964;2022-12-18T17:59:08;101862.22;;;-0.52;100.00
15308;BME280;7755;52.208;6.964;2022-12-18T18:03:13;101875.28;;;-0.59;100.00
15308;BME280;7755;52.208;6.964;2022-12-18T18:07:16;101870.38;;;-0.54;100.00
15308;BME280;7755;52.208;6.964;2022-12-18T18:11:20;101851.25;;;-0.59;100.00
15308;BME280;7755;52.208;6.964;2022-12-18T18:15:41;101862.06;;;-0.51;100.00
15308;BME280;7755;52.208;6.964;2022-12-18T18:19:46;101861.38;;;-0.43;100.00
15308;BME280;7755;52.208;6.964;2022-12-18T18:23:51;101838.84;;;-0.41;100.00
15308;BME280;7755;52.208;6.964;2022-12-18T18:27:54;101847.59;;;-0.39;100.00
15308;BME280;7755;52.208;6.964;2022-12-18T18:31:57;101840.00;;;-0.34;100.00
15308;BME280;7755;52.208;6.964;2022-12-18T18:36:02;101848.00;;;-0.24;100.00
15308;BME280;7755;52.208;6.964;2022-12-18T18:40:05;101857.16;;;-0.17;100.00
15308;BME280;7755;52.208;6.964;2022-12-18T18:44:09;101862.06;;;-0.12;100.00
15308;BME280;7755;52.208;6.964;2022-12-18T18:48:11;101862.63;;;-0.09;100.00
15308;BME280;7755;52.208;6.964;2022-12-18T18:52:17;101871.22;;;-0.05;100.00
15308;BME280;7755;52.208;6.964;2022-12-18T18:56:22;101868.22;;;-0.02;99.61
15308;BME280;7755;52.208;6.964;2022-12-18T19:00:53;101877.66;;;0.02;99.86
15308;BME280;7755;52.208;6.964;2022-12-18T19:04:56;101876.94;;;0.10;99.70
15308;BME280;7755;52.208;6.964;2022-12-18T19:09:02;101857.09;;;0.12;99.67
15308;BME280;7755;52.208;6.964;2022-12-18T19:13:08;101866.09;;;0.11;99.70
15308;BME280;7755;52.208;6.964;2022-12-18T19:17:27;101863.16;;;0.14;99.99
15308;BME280;7755;52.208;6.964;2022-12-18T19:21:32;101861.31;;;0.15;100.00
15308;BME280;7755;52.208;6.964;2022-12-18T19:25:37;101862.72;;;0.19;100.00
15308;BME280;7755;52.208;6.964;2022-12-18T19:29:43;101848.22;;;0.21;99.98
15308;BME280;7755;52.208;6.964;2022-12-18T19:33:46;101851.75;;;0.22;99.97
15308;BME280;7755;52.208;6.964;2022-12-18T19:37:49;101852.13;;;0.27;99.92
15308;BME280;7755;52.208;6.964;2022-12-18T19:41:53;101843.13;;;0.28;100.00
15308;BME280;7755;52.208;6.964;2022-12-18T19:45:56;101835.13;;;0.28;100.00
15308;BME280;7755;52.208;6.964;2022-12-18T19:49:59;101836.22;;;0.25;100.00
15308;BME280;7755;52.208;6.964;2022-12-18T19:54:03;101838.47;;;0.30;100.00
15308;BME280;7755;52.208;6.964;2022-12-18T19:58:07;101831.88;;;0.34;100.00
15308;BME280;7755;52.208;6.964;2022-12-18T20:02:12;101822.44;;;0.30;100.00
15308;BME280;7755;52.208;6.964;2022-12-18T20:06:19;101812.56;;;0.31;100.00
15308;BME280;7755;52.208;6.964;2022-12-18T20:10:22;101820.16;;;0.35;100.00
15308;BME280;7755;52.208;6.964;2022-12-18T20:14:26;101834.91;;;0.39;100.00
15308;BME280;7755;52.208;6.964;2022-12-18T20:18:29;101818.88;;;0.39;100.00
15308;BME280;7755;52.208;6.964;2022-12-18T20:22:31;101827.31;;;0.44;100.00
15308;BME280;7755;52.208;6.964;2022-12-18T20:26:34;101832.06;;;0.50;100.00
15308;BME280;7755;52.208;6.964;2022-12-18T20:30:39;101827.56;;;0.51;100.00
15308;BME280;7755;52.208;6.964;2022-12-18T20:34:41;101830.09;;;0.52;100.00
15308;BME280;7755;52.208;6.964;2022-12-18T20:38:44;101833.91;;;0.50;100.00
15308;BME280;7755;52.208;6.964;2022-12-18T20:42:48;101839.25;;;0.50;100.00
15308;BME280;7755;52.208;6.964;2022-12-18T20:46:55;101830.38;;;0.49;100.00
15308;BME280;7755;52.208;6.964;2022-12-18T20:51:01;101835.75;;;0.49;100.00
15308;BME280;7755;52.208;6.964;2022-12-18T20:55:05;101842.63;;;0.52;100.00
15308;BME280;7755;52.208;6.964;2022-12-18T20:59:08;101843.03;;;0.57;100.00
15308;BME280;7755;52.208;6.964;2022-12-18T21:03:13;101834.84;;;0.59;100.00
15308;BME280;7755;52.208;6.964;2022-12-18T21:07:16;101834.00;;;0.58;100.00
15308;BME280;7755;52.208;6.964;2022-12-18T21:11:27;101836.53;;;0.60;100.00
15308;BME280;7755;52.208;6.964;2022-12-18T21:15:47;101834.69;;;0.60;100.00
15308;BME280;7755;52.208;6.964;2022-12-18T21:19:52;101831.88;;;0.62;100.00
15308;BME280;7755;52.208;6.964;2022-12-18T21:23:55;101825.38;;;0.64;100.00
15308;BME280;7755;52.208;6.964;2022-12-18T21:27:58;101819.03;;;0.65;100.00
15308;BME280;7755;52.208;6.964;2022-12-18T21:32:01;101822.56;;;0.66;100.00
15308;BME280;7755;52.208;6.964;2022-12-18T21:36:07;101821.44;;;0.68;100.00
15308;BME280;7755;52.208;6.964;2022-12-18T21:40:10;101820.44;;;0.69;100.00
15308;BME280;7755;52.208;6.964;2022-12-18T21:44:15;101816.78;;;0.70;100.00